Metigoshe, North Dakota
Current Conditions -  °F | °C
As of 5:15 PM on Wednesday 17 Dec 2014 (Local Time) from KRUG Reporting Station
Clear Clear  
Wind Chill:   Ceiling: Unl
Heat Index: 10°   Visibility: 10mi
Dew Point:   Wind: 7mph
Humidity: 85%   Direction: 130°SE
Pressure: 30.23"   Gusts: NA
Location:  48.8385°N, 100.496°W
Report Text: KRUG 172315Z AUTO 13006KT 10SM CLR M12/M14 A3023 RMK AO2
Loading
Personal Weather Stations






























Interactive Weather Map New forecast layout! Learn more

10-Day Weather Forecast

Advertisements
Track Severe Weather on mobile